sensor_id;sensor_type;location;lat;lon;timestamp;P1;durP1;ratioP1;P2;durP2;ratioP2
28926;SDS011;16038;47.692;9.400;2022-08-04T00:00:05;6.75;;;2.60;;
28926;SDS011;16038;47.692;9.400;2022-08-04T00:05:18;7.10;;;3.05;;
28926;SDS011;16038;47.692;9.400;2022-08-04T00:11:08;11.10;;;6.00;;
28926;SDS011;16038;47.692;9.400;2022-08-04T00:13:36;5.05;;;2.80;;
28926;SDS011;16038;47.692;9.400;2022-08-04T00:16:07;6.10;;;2.78;;
28926;SDS011;16038;47.692;9.400;2022-08-04T00:18:49;3.90;;;2.60;;
28926;SDS011;16038;47.692;9.400;2022-08-04T00:21:24;5.32;;;2.50;;
28926;SDS011;16038;47.692;9.400;2022-08-04T00:23:51;4.20;;;2.50;;
28926;SDS011;16038;47.692;9.400;2022-08-04T00:26:19;5.57;;;2.85;;
28926;SDS011;16038;47.692;9.400;2022-08-04T00:28:44;5.03;;;2.50;;
28926;SDS011;16038;47.692;9.400;2022-08-04T00:31:11;5.55;;;2.70;;
28926;SDS011;16038;47.692;9.400;2022-08-04T00:33:39;5.30;;;2.55;;
28926;SDS011;16038;47.692;9.400;2022-08-04T00:36:09;3.20;;;2.30;;
28926;SDS011;16038;47.692;9.400;2022-08-04T00:38:35;4.00;;;2.78;;
28926;SDS011;16038;47.692;9.400;2022-08-04T00:49:32;5.22;;;2.35;;
28926;SDS011;16038;47.692;9.400;2022-08-04T00:52:22;3.63;;;2.53;;
28926;SDS011;16038;47.692;9.400;2022-08-04T00:57:48;4.10;;;2.53;;
28926;SDS011;16038;47.692;9.400;2022-08-04T01:00:27;4.60;;;2.38;;
28926;SDS011;16038;47.692;9.400;2022-08-04T01:08:44;3.35;;;2.33;;
28926;SDS011;16038;47.692;9.400;2022-08-04T01:27:58;4.15;;;2.30;;
28926;SDS011;16038;47.692;9.400;2022-08-04T01:30:53;2.83;;;1.98;;
28926;SDS011;16038;47.692;9.400;2022-08-04T01:33:22;4.07;;;2.42;;
28926;SDS011;16038;47.692;9.400;2022-08-04T01:35:55;4.28;;;2.05;;
28926;SDS011;16038;47.692;9.400;2022-08-04T01:38:28;5.85;;;2.78;;
28926;SDS011;16038;47.692;9.400;2022-08-04T01:41:04;7.22;;;2.55;;
28926;SDS011;16038;47.692;9.400;2022-08-04T01:43:32;4.70;;;2.53;;
28926;SDS011;16038;47.692;9.400;2022-08-04T01:46:00;6.03;;;3.05;;
28926;SDS011;16038;47.692;9.400;2022-08-04T01:48:27;5.18;;;2.75;;
28926;SDS011;16038;47.692;9.400;2022-08-04T01:50:58;6.07;;;2.83;;
28926;SDS011;16038;47.692;9.400;2022-08-04T01:53:30;5.82;;;2.92;;
28926;SDS011;16038;47.692;9.400;2022-08-04T01:55:57;4.72;;;3.08;;
28926;SDS011;16038;47.692;9.400;2022-08-04T01:58:25;7.05;;;2.60;;
28926;SDS011;16038;47.692;9.400;2022-08-04T02:01:03;4.50;;;2.85;;
28926;SDS011;16038;47.692;9.400;2022-08-04T02:03:31;4.65;;;2.67;;
28926;SDS011;16038;47.692;9.400;2022-08-04T02:06:06;5.95;;;2.60;;
28926;SDS011;16038;47.692;9.400;2022-08-04T02:08:46;5.10;;;2.75;;
28926;SDS011;16038;47.692;9.400;2022-08-04T02:11:20;5.45;;;2.45;;
28926;SDS011;16038;47.692;9.400;2022-08-04T02:13:52;7.95;;;3.28;;
28926;SDS011;16038;47.692;9.400;2022-08-04T02:19:01;6.10;;;3.00;;
28926;SDS011;16038;47.692;9.400;2022-08-04T02:21:38;19.13;;;2.95;;
28926;SDS011;16038;47.692;9.400;2022-08-04T02:24:06;6.07;;;2.63;;
28926;SDS011;16038;47.692;9.400;2022-08-04T02:26:33;8.70;;;3.33;;
28926;SDS011;16038;47.692;9.400;2022-08-04T02:32:03;4.90;;;2.50;;
28926;SDS011;16038;47.692;9.400;2022-08-04T02:36:59;3.47;;;2.42;;
28926;SDS011;16038;47.692;9.400;2022-08-04T02:39:30;4.80;;;2.45;;
28926;SDS011;16038;47.692;9.400;2022-08-04T02:42:04;5.53;;;2.70;;
28926;SDS011;16038;47.692;9.400;2022-08-04T02:44:30;11.23;;;3.20;;
28926;SDS011;16038;47.692;9.400;2022-08-04T02:46:57;5.95;;;2.63;;
28926;SDS011;16038;47.692;9.400;2022-08-04T02:49:24;7.47;;;2.80;;
28926;SDS011;16038;47.692;9.400;2022-08-04T02:51:52;6.03;;;3.10;;
28926;SDS011;16038;47.692;9.400;2022-08-04T02:54:22;5.72;;;3.28;;
28926;SDS011;16038;47.692;9.400;2022-08-04T02:56:49;5.50;;;2.70;;
28926;SDS011;16038;47.692;9.400;2022-08-04T02:59:16;4.78;;;2.55;;
28926;SDS011;16038;47.692;9.400;2022-08-04T03:01:44;4.47;;;2.33;;
28926;SDS011;16038;47.692;9.400;2022-08-04T03:04:21;4.30;;;2.65;;
28926;SDS011;16038;47.692;9.400;2022-08-04T03:10:17;6.60;;;2.83;;
28926;SDS011;16038;47.692;9.400;2022-08-04T03:13:14;7.20;;;2.80;;
28926;SDS011;16038;47.692;9.400;2022-08-04T03:53:15;6.40;;;2.70;;
28926;SDS011;16038;47.692;9.400;2022-08-04T04:01:55;6.72;;;2.78;;
28926;SDS011;16038;47.692;9.400;2022-08-04T04:23:57;10.82;;;3.10;;
28926;SDS011;16038;47.692;9.400;2022-08-04T04:26:33;4.72;;;2.58;;
28926;SDS011;16038;47.692;9.400;2022-08-04T04:31:55;8.63;;;2.72;;
28926;SDS011;16038;47.692;9.400;2022-08-04T04:37:19;5.57;;;2.72;;
28926;SDS011;16038;47.692;9.400;2022-08-04T04:43:05;6.90;;;2.75;;
28926;SDS011;16038;47.692;9.400;2022-08-04T04:45:53;4.25;;;2.72;;
28926;SDS011;16038;47.692;9.400;2022-08-04T04:51:19;8.10;;;2.67;;
28926;SDS011;16038;47.692;9.400;2022-08-04T04:53:55;6.22;;;2.40;;
28926;SDS011;16038;47.692;9.400;2022-08-04T04:56:44;3.75;;;2.70;;
28926;SDS011;16038;47.692;9.400;2022-08-04T04:59:15;6.57;;;2.60;;
28926;SDS011;16038;47.692;9.400;2022-08-04T05:01:56;6.15;;;2.80;;
28926;SDS011;16038;47.692;9.400;2022-08-04T05:13:31;5.50;;;2.25;;
28926;SDS011;16038;47.692;9.400;2022-08-04T05:16:16;7.38;;;2.42;;
28926;SDS011;16038;47.692;9.400;2022-08-04T05:18:46;5.13;;;2.10;;
28926;SDS011;16038;47.692;9.400;2022-08-04T05:23:55;7.18;;;2.17;;
28926;SDS011;16038;47.692;9.400;2022-08-04T05:26:28;6.55;;;2.13;;
28926;SDS011;16038;47.692;9.400;2022-08-04T05:28:56;9.23;;;2.20;;
28926;SDS011;16038;47.692;9.400;2022-08-04T05:31:33;4.05;;;2.13;;
28926;SDS011;16038;47.692;9.400;2022-08-04T05:36:35;5.03;;;1.88;;
28926;SDS011;16038;47.692;9.400;2022-08-04T05:39:05;5.05;;;1.65;;
28926;SDS011;16038;47.692;9.400;2022-08-04T05:41:32;3.13;;;1.58;;
28926;SDS011;16038;47.692;9.400;2022-08-04T05:43:59;6.28;;;1.80;;
28926;SDS011;16038;47.692;9.400;2022-08-04T05:46:26;4.47;;;1.90;;
28926;SDS011;16038;47.692;9.400;2022-08-04T05:48:53;3.08;;;1.58;;
28926;SDS011;16038;47.692;9.400;2022-08-04T05:51:19;3.00;;;1.50;;
28926;SDS011;16038;47.692;9.400;2022-08-04T05:53:45;4.47;;;1.80;;
28926;SDS011;16038;47.692;9.400;2022-08-04T05:56:13;3.10;;;1.45;;
28926;SDS011;16038;47.692;9.400;2022-08-04T05:58:40;2.78;;;1.73;;
28926;SDS011;16038;47.692;9.400;2022-08-04T06:01:07;4.82;;;1.40;;
28926;SDS011;16038;47.692;9.400;2022-08-04T06:03:34;6.82;;;1.75;;
28926;SDS011;16038;47.692;9.400;2022-08-04T06:06:01;5.35;;;1.85;;
28926;SDS011;16038;47.692;9.400;2022-08-04T06:08:28;2.83;;;1.70;;
28926;SDS011;16038;47.692;9.400;2022-08-04T06:10:55;6.15;;;1.85;;
28926;SDS011;16038;47.692;9.400;2022-08-04T06:13:28;5.07;;;1.83;;
28926;SDS011;16038;47.692;9.400;2022-08-04T06:15:54;3.17;;;1.40;;
28926;SDS011;16038;47.692;9.400;2022-08-04T06:18:21;3.63;;;1.88;;
28926;SDS011;16038;47.692;9.400;2022-08-04T06:20:52;4.28;;;1.55;;
28926;SDS011;16038;47.692;9.400;2022-08-04T06:23:20;3.33;;;1.90;;
28926;SDS011;16038;47.692;9.400;2022-08-04T06:25:49;7.03;;;1.67;;
28926;SDS011;16038;47.692;9.400;2022-08-04T06:30:43;4.47;;;1.70;;
28926;SDS011;16038;47.692;9.400;2022-08-04T06:33:12;5.68;;;1.77;;
28926;SDS011;16038;47.692;9.400;2022-08-04T06:35:50;3.20;;;1.88;;
28926;SDS011;16038;47.692;9.400;2022-08-04T06:38:22;3.38;;;1.95;;
28926;SDS011;16038;47.692;9.400;2022-08-04T06:40:49;3.33;;;1.80;;
28926;SDS011;16038;47.692;9.400;2022-08-04T06:43:15;5.05;;;2.05;;
28926;SDS011;16038;47.692;9.400;2022-08-04T06:45:41;4.03;;;1.77;;
28926;SDS011;16038;47.692;9.400;2022-08-04T06:48:10;5.65;;;1.80;;
28926;SDS011;16038;47.692;9.400;2022-08-04T06:50:38;6.78;;;1.80;;
28926;SDS011;16038;47.692;9.400;2022-08-04T06:53:05;3.45;;;1.60;;
28926;SDS011;16038;47.692;9.400;2022-08-04T06:55:31;5.82;;;1.70;;
28926;SDS011;16038;47.692;9.400;2022-08-04T06:57:58;6.15;;;1.95;;
28926;SDS011;16038;47.692;9.400;2022-08-04T07:00:25;5.00;;;1.90;;
28926;SDS011;16038;47.692;9.400;2022-08-04T07:02:52;5.07;;;3.38;;
28926;SDS011;16038;47.692;9.400;2022-08-04T07:05:18;4.38;;;2.05;;
28926;SDS011;16038;47.692;9.400;2022-08-04T07:07:45;5.18;;;1.98;;
28926;SDS011;16038;47.692;9.400;2022-08-04T07:10:11;7.32;;;2.10;;
28926;SDS011;16038;47.692;9.400;2022-08-04T07:12:38;5.72;;;2.15;;
28926;SDS011;16038;47.692;9.400;2022-08-04T07:15:05;3.58;;;2.03;;
28926;SDS011;16038;47.692;9.400;2022-08-04T07:17:32;4.60;;;1.92;;
28926;SDS011;16038;47.692;9.400;2022-08-04T07:19:59;3.13;;;1.98;;
28926;SDS011;16038;47.692;9.400;2022-08-04T07:22:25;6.78;;;2.15;;
28926;SDS011;16038;47.692;9.400;2022-08-04T07:24:56;5.47;;;2.10;;
28926;SDS011;16038;47.692;9.400;2022-08-04T07:27:23;3.58;;;2.05;;
28926;SDS011;16038;47.692;9.400;2022-08-04T07:29:50;3.58;;;2.05;;
28926;SDS011;16038;47.692;9.400;2022-08-04T07:32:17;5.95;;;2.55;;
28926;SDS011;16038;47.692;9.400;2022-08-04T07:34:44;3.72;;;2.17;;
28926;SDS011;16038;47.692;9.400;2022-08-04T07:37:12;6.28;;;2.47;;
28926;SDS011;16038;47.692;9.400;2022-08-04T07:39:38;4.75;;;2.63;;
28926;SDS011;16038;47.692;9.400;2022-08-04T07:42:04;2.75;;;1.92;;
28926;SDS011;16038;47.692;9.400;2022-08-04T07:44:31;3.42;;;2.38;;
28926;SDS011;16038;47.692;9.400;2022-08-04T07:46:57;3.65;;;2.47;;
28926;SDS011;16038;47.692;9.400;2022-08-04T07:49:24;3.38;;;2.50;;
28926;SDS011;16038;47.692;9.400;2022-08-04T07:51:50;5.78;;;2.88;;
28926;SDS011;16038;47.692;9.400;2022-08-04T07:54:16;9.40;;;2.40;;
28926;SDS011;16038;47.692;9.400;2022-08-04T07:56:42;4.10;;;2.15;;
28926;SDS011;16038;47.692;9.400;2022-08-04T07:59:08;8.40;;;2.70;;
28926;SDS011;16038;47.692;9.400;2022-08-04T08:01:34;6.30;;;2.67;;
28926;SDS011;16038;47.692;9.400;2022-08-04T08:04:01;6.13;;;2.83;;
28926;SDS011;16038;47.692;9.400;2022-08-04T08:06:29;7.13;;;2.80;;
28926;SDS011;16038;47.692;9.400;2022-08-04T08:08:55;3.67;;;2.83;;
28926;SDS011;16038;47.692;9.400;2022-08-04T08:11:21;4.43;;;2.47;;
28926;SDS011;16038;47.692;9.400;2022-08-04T08:13:46;7.40;;;5.97;;
28926;SDS011;16038;47.692;9.400;2022-08-04T08:16:12;7.35;;;4.43;;
28926;SDS011;16038;47.692;9.400;2022-08-04T08:18:38;5.75;;;2.65;;
28926;SDS011;16038;47.692;9.400;2022-08-04T08:21:04;4.38;;;2.80;;
28926;SDS011;16038;47.692;9.400;2022-08-04T08:23:30;4.53;;;3.10;;
28926;SDS011;16038;47.692;9.400;2022-08-04T08:25:58;4.60;;;2.53;;
28926;SDS011;16038;47.692;9.400;2022-08-04T08:28:23;5.20;;;2.90;;
28926;SDS011;16038;47.692;9.400;2022-08-04T08:30:49;4.50;;;2.38;;
28926;SDS011;16038;47.692;9.400;2022-08-04T08:33:15;6.05;;;2.72;;
28926;SDS011;16038;47.692;9.400;2022-08-04T08:35:46;3.78;;;2.63;;
28926;SDS011;16038;47.692;9.400;2022-08-04T08:38:17;4.65;;;2.25;;
28926;SDS011;16038;47.692;9.400;2022-08-04T08:40:57;4.05;;;2.28;;
28926;SDS011;16038;47.692;9.400;2022-08-04T08:48:53;4.47;;;2.33;;
28926;SDS011;16038;47.692;9.400;2022-08-04T08:57:36;4.72;;;3.08;;
28926;SDS011;16038;47.692;9.400;2022-08-04T09:00:13;3.58;;;2.50;;
28926;SDS011;16038;47.692;9.400;2022-08-04T09:05:55;5.10;;;2.92;;
28926;SDS011;16038;47.692;9.400;2022-08-04T09:08:48;6.63;;;3.15;;
28926;SDS011;16038;47.692;9.400;2022-08-04T09:11:24;3.50;;;2.38;;
28926;SDS011;16038;47.692;9.400;2022-08-04T09:13:59;6.13;;;2.85;;
28926;SDS011;16038;47.692;9.400;2022-08-04T09:25:41;5.63;;;2.95;;
28926;SDS011;16038;47.692;9.400;2022-08-04T09:27:54;10.07;;;4.20;;
28926;SDS011;16038;47.692;9.400;2022-08-04T09:30:31;8.30;;;2.53;;
28926;SDS011;16038;47.692;9.400;2022-08-04T09:35:56;6.65;;;2.95;;
28926;SDS011;16038;47.692;9.400;2022-08-04T09:46:49;6.18;;;3.13;;
28926;SDS011;16038;47.692;9.400;2022-08-04T09:49:33;5.47;;;2.28;;
28926;SDS011;16038;47.692;9.400;2022-08-04T09:52:08;5.35;;;2.00;;
28926;SDS011;16038;47.692;9.400;2022-08-04T09:55:00;4.25;;;2.30;;
28926;SDS011;16038;47.692;9.400;2022-08-04T10:01:09;10.38;;;2.38;;
28926;SDS011;16038;47.692;9.400;2022-08-04T10:03:40;7.10;;;3.33;;
28926;SDS011;16038;47.692;9.400;2022-08-04T10:09:20;4.60;;;2.63;;
28926;SDS011;16038;47.692;9.400;2022-08-04T10:14:52;5.38;;;3.15;;
28926;SDS011;16038;47.692;9.400;2022-08-04T10:17:33;3.33;;;2.58;;
28926;SDS011;16038;47.692;9.400;2022-08-04T10:20:18;4.32;;;2.63;;
28926;SDS011;16038;47.692;9.400;2022-08-04T10:23:14;6.25;;;2.63;;
28926;SDS011;16038;47.692;9.400;2022-08-04T10:28:42;5.70;;;2.97;;
28926;SDS011;16038;47.692;9.400;2022-08-04T10:31:12;6.68;;;3.00;;
28926;SDS011;16038;47.692;9.400;2022-08-04T10:33:48;5.55;;;3.42;;
28926;SDS011;16038;47.692;9.400;2022-08-04T10:36:18;6.90;;;3.13;;
28926;SDS011;16038;47.692;9.400;2022-08-04T10:38:55;9.35;;;2.85;;
28926;SDS011;16038;47.692;9.400;2022-08-04T10:41:26;5.25;;;3.05;;
28926;SDS011;16038;47.692;9.400;2022-08-04T10:44:16;4.20;;;2.70;;
28926;SDS011;16038;47.692;9.400;2022-08-04T10:46:53;5.45;;;3.10;;
28926;SDS011;16038;47.692;9.400;2022-08-04T10:49:32;4.63;;;2.95;;
28926;SDS011;16038;47.692;9.400;2022-08-04T10:54:50;4.68;;;2.92;;
28926;SDS011;16038;47.692;9.400;2022-08-04T10:57:22;6.47;;;2.85;;
28926;SDS011;16038;47.692;9.400;2022-08-04T11:00:00;7.35;;;2.72;;
28926;SDS011;16038;47.692;9.400;2022-08-04T11:05:29;5.00;;;3.05;;
28926;SDS011;16038;47.692;9.400;2022-08-04T11:10:58;5.23;;;2.97;;
28926;SDS011;16038;47.692;9.400;2022-08-04T11:13:28;5.00;;;2.67;;
28926;SDS011;16038;47.692;9.400;2022-08-04T11:16:01;8.05;;;3.45;;
28926;SDS011;16038;47.692;9.400;2022-08-04T11:21:19;5.13;;;2.90;;
28926;SDS011;16038;47.692;9.400;2022-08-04T11:23:58;3.67;;;2.70;;
28926;SDS011;16038;47.692;9.400;2022-08-04T11:31:49;5.93;;;2.75;;
28926;SDS011;16038;47.692;9.400;2022-08-04T11:34:19;7.85;;;2.80;;
28926;SDS011;16038;47.692;9.400;2022-08-04T11:36:59;4.88;;;2.30;;
28926;SDS011;16038;47.692;9.400;2022-08-04T11:42:25;6.03;;;2.30;;
28926;SDS011;16038;47.692;9.400;2022-08-04T11:45:02;4.93;;;2.67;;
28926;SDS011;16038;47.692;9.400;2022-08-04T11:53:05;3.90;;;2.60;;
28926;SDS011;16038;47.692;9.400;2022-08-04T11:55:32;6.80;;;2.80;;
28926;SDS011;16038;47.692;9.400;2022-08-04T11:58:01;7.65;;;2.47;;
28926;SDS011;16038;47.692;9.400;2022-08-04T12:00:27;3.75;;;2.25;;
28926;SDS011;16038;47.692;9.400;2022-08-04T12:03:10;4.60;;;2.00;;
28926;SDS011;16038;47.692;9.400;2022-08-04T12:06:29;3.35;;;2.10;;
28926;SDS011;16038;47.692;9.400;2022-08-04T12:08:49;4.60;;;2.20;;
28926;SDS011;16038;47.692;9.400;2022-08-04T12:11:39;3.22;;;2.00;;
28926;SDS011;16038;47.692;9.400;2022-08-04T12:17:12;4.03;;;2.20;;
28926;SDS011;16038;47.692;9.400;2022-08-04T12:19:56;7.00;;;2.70;;
28926;SDS011;16038;47.692;9.400;2022-08-04T12:22:26;6.53;;;2.40;;
28926;SDS011;16038;47.692;9.400;2022-08-04T12:25:09;10.75;;;3.08;;
28926;SDS011;16038;47.692;9.400;2022-08-04T12:30:07;3.33;;;2.40;;
28926;SDS011;16038;47.692;9.400;2022-08-04T12:32:47;6.05;;;2.05;;
28926;SDS011;16038;47.692;9.400;2022-08-04T12:35:13;6.88;;;2.50;;
28926;SDS011;16038;47.692;9.400;2022-08-04T12:40:32;5.22;;;2.70;;
28926;SDS011;16038;47.692;9.400;2022-08-04T12:45:54;3.42;;;2.10;;
28926;SDS011;16038;47.692;9.400;2022-08-04T12:48:22;6.60;;;2.45;;
28926;SDS011;16038;47.692;9.400;2022-08-04T12:50:51;4.47;;;2.83;;
28926;SDS011;16038;47.692;9.400;2022-08-04T12:53:25;5.45;;;2.30;;
28926;SDS011;16038;47.692;9.400;2022-08-04T12:55:54;4.55;;;2.20;;
28926;SDS011;16038;47.692;9.400;2022-08-04T12:58:22;7.25;;;2.22;;
28926;SDS011;16038;47.692;9.400;2022-08-04T13:00:59;5.57;;;2.13;;
28926;SDS011;16038;47.692;9.400;2022-08-04T13:03:33;6.10;;;2.63;;
28926;SDS011;16038;47.692;9.400;2022-08-04T13:06:02;5.57;;;2.33;;
28926;SDS011;16038;47.692;9.400;2022-08-04T13:08:30;10.35;;;2.33;;
28926;SDS011;16038;47.692;9.400;2022-08-04T13:11:01;3.10;;;2.00;;
28926;SDS011;16038;47.692;9.400;2022-08-04T13:13:30;4.03;;;2.35;;
28926;SDS011;16038;47.692;9.400;2022-08-04T13:16:02;5.10;;;2.08;;
28926;SDS011;16038;47.692;9.400;2022-08-04T13:18:33;3.35;;;2.20;;
28926;SDS011;16038;47.692;9.400;2022-08-04T13:21:22;4.18;;;2.10;;
28926;SDS011;16038;47.692;9.400;2022-08-04T13:23:50;3.55;;;2.10;;
28926;SDS011;16038;47.692;9.400;2022-08-04T13:26:18;6.53;;;2.20;;
28926;SDS011;16038;47.692;9.400;2022-08-04T13:28:46;4.43;;;1.88;;
28926;SDS011;16038;47.692;9.400;2022-08-04T13:31:14;5.05;;;2.22;;
28926;SDS011;16038;47.692;9.400;2022-08-04T13:33:42;7.72;;;2.80;;
28926;SDS011;16038;47.692;9.400;2022-08-04T13:36:09;4.78;;;1.58;;
28926;SDS011;16038;47.692;9.400;2022-08-04T13:38:37;3.03;;;1.50;;
28926;SDS011;16038;47.692;9.400;2022-08-04T13:41:05;3.75;;;1.65;;
28926;SDS011;16038;47.692;9.400;2022-08-04T13:43:45;10.75;;;2.05;;
28926;SDS011;16038;47.692;9.400;2022-08-04T13:46:14;5.65;;;1.80;;
28926;SDS011;16038;47.692;9.400;2022-08-04T13:48:47;3.55;;;1.75;;
28926;SDS011;16038;47.692;9.400;2022-08-04T13:51:14;2.78;;;1.38;;
28926;SDS011;16038;47.692;9.400;2022-08-04T13:53:42;2.90;;;1.30;;
28926;SDS011;16038;47.692;9.400;2022-08-04T13:56:08;4.10;;;1.67;;
28926;SDS011;16038;47.692;9.400;2022-08-04T13:58:43;3.45;;;2.15;;
28926;SDS011;16038;47.692;9.400;2022-08-04T14:06:20;4.43;;;1.73;;
28926;SDS011;16038;47.692;9.400;2022-08-04T14:08:55;5.93;;;1.85;;
28926;SDS011;16038;47.692;9.400;2022-08-04T14:11:38;2.42;;;1.52;;
28926;SDS011;16038;47.692;9.400;2022-08-04T14:14:16;8.18;;;1.90;;
28926;SDS011;16038;47.692;9.400;2022-08-04T14:16:59;3.58;;;1.52;;
28926;SDS011;16038;47.692;9.400;2022-08-04T14:19:28;2.88;;;1.30;;
28926;SDS011;16038;47.692;9.400;2022-08-04T14:22:00;3.85;;;1.42;;
28926;SDS011;16038;47.692;9.400;2022-08-04T14:24:26;2.60;;;1.30;;
28926;SDS011;16038;47.692;9.400;2022-08-04T14:26:57;4.18;;;1.38;;
28926;SDS011;16038;47.692;9.400;2022-08-04T14:29:25;2.80;;;1.40;;
28926;SDS011;16038;47.692;9.400;2022-08-04T14:32:04;1.88;;;1.10;;
28926;SDS011;16038;47.692;9.400;2022-08-04T14:34:32;3.35;;;1.20;;
28926;SDS011;16038;47.692;9.400;2022-08-04T14:37:06;3.60;;;1.30;;
28926;SDS011;16038;47.692;9.400;2022-08-04T14:39:43;3.60;;;1.50;;
28926;SDS011;16038;47.692;9.400;2022-08-04T14:42:11;2.55;;;1.08;;
28926;SDS011;16038;47.692;9.400;2022-08-04T14:44:57;3.35;;;1.25;;
28926;SDS011;16038;47.692;9.400;2022-08-04T14:47:41;3.53;;;1.98;;
28926;SDS011;16038;47.692;9.400;2022-08-04T14:50:11;5.57;;;2.83;;
28926;SDS011;16038;47.692;9.400;2022-08-04T14:52:38;4.43;;;1.48;;
28926;SDS011;16038;47.692;9.400;2022-08-04T14:55:14;5.65;;;1.58;;
28926;SDS011;16038;47.692;9.400;2022-08-04T14:57:49;2.17;;;1.38;;
28926;SDS011;16038;47.692;9.400;2022-08-04T15:00:32;3.58;;;1.40;;
28926;SDS011;16038;47.692;9.400;2022-08-04T15:03:03;3.22;;;1.42;;
28926;SDS011;16038;47.692;9.400;2022-08-04T15:05:37;2.22;;;1.35;;
28926;SDS011;16038;47.692;9.400;2022-08-04T15:08:04;3.25;;;1.55;;
28926;SDS011;16038;47.692;9.400;2022-08-04T15:10:30;2.88;;;1.30;;
28926;SDS011;16038;47.692;9.400;2022-08-04T15:12:56;3.70;;;1.50;;
28926;SDS011;16038;47.692;9.400;2022-08-04T15:15:24;4.13;;;1.30;;
28926;SDS011;16038;47.692;9.400;2022-08-04T15:17:50;3.75;;;1.80;;
28926;SDS011;16038;47.692;9.400;2022-08-04T15:20:17;2.55;;;1.23;;
28926;SDS011;16038;47.692;9.400;2022-08-04T15:22:43;6.97;;;1.77;;
28926;SDS011;16038;47.692;9.400;2022-08-04T15:25:08;4.00;;;1.50;;
28926;SDS011;16038;47.692;9.400;2022-08-04T15:27:34;6.88;;;1.75;;
28926;SDS011;16038;47.692;9.400;2022-08-04T15:30:05;5.70;;;1.50;;
28926;SDS011;16038;47.692;9.400;2022-08-04T15:32:34;4.75;;;2.05;;
28926;SDS011;16038;47.692;9.400;2022-08-04T15:35:10;3.67;;;1.42;;
28926;SDS011;16038;47.692;9.400;2022-08-04T15:40:27;3.17;;;1.33;;
28926;SDS011;16038;47.692;9.400;2022-08-04T15:46:21;3.97;;;1.40;;
28926;SDS011;16038;47.692;9.400;2022-08-04T15:49:22;3.38;;;1.23;;
28926;SDS011;16038;47.692;9.400;2022-08-04T15:51:58;2.17;;;1.20;;
28926;SDS011;16038;47.692;9.400;2022-08-04T15:54:25;6.35;;;2.00;;
28926;SDS011;16038;47.692;9.400;2022-08-04T15:56:50;4.63;;;1.98;;
28926;SDS011;16038;47.692;9.400;2022-08-04T15:59:20;3.47;;;1.60;;
28926;SDS011;16038;47.692;9.400;2022-08-04T16:12:57;4.72;;;1.63;;
28926;SDS011;16038;47.692;9.400;2022-08-04T16:15:41;5.75;;;1.63;;
28926;SDS011;16038;47.692;9.400;2022-08-04T16:18:09;6.45;;;1.58;;
28926;SDS011;16038;47.692;9.400;2022-08-04T16:20:36;3.17;;;1.83;;
28926;SDS011;16038;47.692;9.400;2022-08-04T16:23:11;10.25;;;2.17;;
28926;SDS011;16038;47.692;9.400;2022-08-04T16:25:46;3.00;;;2.00;;
28926;SDS011;16038;47.692;9.400;2022-08-04T16:31:02;8.13;;;2.92;;
28926;SDS011;16038;47.692;9.400;2022-08-04T16:33:29;3.65;;;1.83;;
28926;SDS011;16038;47.692;9.400;2022-08-04T16:35:56;7.18;;;1.73;;
28926;SDS011;16038;47.692;9.400;2022-08-04T16:38:22;4.97;;;1.60;;
28926;SDS011;16038;47.692;9.400;2022-08-04T16:40:55;4.10;;;1.67;;
28926;SDS011;16038;47.692;9.400;2022-08-04T16:43:28;4.97;;;1.98;;
28926;SDS011;16038;47.692;9.400;2022-08-04T16:45:56;4.32;;;1.77;;
28926;SDS011;16038;47.692;9.400;2022-08-04T16:48:30;4.10;;;1.60;;
28926;SDS011;16038;47.692;9.400;2022-08-04T16:56:13;3.22;;;1.65;;
28926;SDS011;16038;47.692;9.400;2022-08-04T16:58:42;4.22;;;2.55;;
28926;SDS011;16038;47.692;9.400;2022-08-04T17:01:13;2.92;;;1.80;;
28926;SDS011;16038;47.692;9.400;2022-08-04T17:03:47;3.90;;;2.03;;
28926;SDS011;16038;47.692;9.400;2022-08-04T17:06:14;7.15;;;2.20;;
28926;SDS011;16038;47.692;9.400;2022-08-04T17:08:40;2.97;;;1.45;;
28926;SDS011;16038;47.692;9.400;2022-08-04T17:11:06;3.67;;;1.80;;
28926;SDS011;16038;47.692;9.400;2022-08-04T17:13:35;4.90;;;1.88;;
28926;SDS011;16038;47.692;9.400;2022-08-04T17:16:03;3.80;;;2.00;;
28926;SDS011;16038;47.692;9.400;2022-08-04T17:18:36;6.70;;;1.80;;
28926;SDS011;16038;47.692;9.400;2022-08-04T17:21:05;4.18;;;2.05;;
28926;SDS011;16038;47.692;9.400;2022-08-04T17:23:47;3.40;;;1.73;;
28926;SDS011;16038;47.692;9.400;2022-08-04T17:26:20;3.20;;;1.73;;
28926;SDS011;16038;47.692;9.400;2022-08-04T17:28:48;4.03;;;1.80;;
28926;SDS011;16038;47.692;9.400;2022-08-04T17:31:15;7.00;;;1.80;;
28926;SDS011;16038;47.692;9.400;2022-08-04T17:33:47;3.33;;;1.55;;
28926;SDS011;16038;47.692;9.400;2022-08-04T17:36:15;7.07;;;1.88;;
28926;SDS011;16038;47.692;9.400;2022-08-04T17:38:49;3.55;;;1.73;;
28926;SDS011;16038;47.692;9.400;2022-08-04T17:41:19;7.40;;;2.55;;
28926;SDS011;16038;47.692;9.400;2022-08-04T17:43:52;3.92;;;1.95;;
28926;SDS011;16038;47.692;9.400;2022-08-04T17:51:50;5.47;;;2.08;;
28926;SDS011;16038;47.692;9.400;2022-08-04T17:56:55;4.50;;;2.30;;
28926;SDS011;16038;47.692;9.400;2022-08-04T17:59:23;4.07;;;1.60;;
28926;SDS011;16038;47.692;9.400;2022-08-04T18:01:57;2.88;;;1.58;;
28926;SDS011;16038;47.692;9.400;2022-08-04T18:07:09;2.95;;;1.50;;
28926;SDS011;16038;47.692;9.400;2022-08-04T18:09:39;5.65;;;2.13;;
28926;SDS011;16038;47.692;9.400;2022-08-04T18:14:38;4.20;;;1.85;;
28926;SDS011;16038;47.692;9.400;2022-08-04T18:17:08;5.53;;;1.60;;
28926;SDS011;16038;47.692;9.400;2022-08-04T18:19:35;4.40;;;1.30;;
28926;SDS011;16038;47.692;9.400;2022-08-04T18:22:04;3.45;;;1.50;;
28926;SDS011;16038;47.692;9.400;2022-08-04T18:24:33;2.95;;;1.38;;
28926;SDS011;16038;47.692;9.400;2022-08-04T18:26:59;4.20;;;1.52;;
28926;SDS011;16038;47.692;9.400;2022-08-04T18:29:24;5.18;;;3.17;;
28926;SDS011;16038;47.692;9.400;2022-08-04T18:31:50;3.50;;;2.38;;
28926;SDS011;16038;47.692;9.400;2022-08-04T18:34:15;5.57;;;3.97;;
28926;SDS011;16038;47.692;9.400;2022-08-04T18:36:41;4.47;;;3.30;;
28926;SDS011;16038;47.692;9.400;2022-08-04T18:39:08;2.92;;;1.63;;
28926;SDS011;16038;47.692;9.400;2022-08-04T18:41:34;5.53;;;1.63;;
28926;SDS011;16038;47.692;9.400;2022-08-04T18:44:00;2.75;;;1.73;;
28926;SDS011;16038;47.692;9.400;2022-08-04T18:46:25;2.55;;;1.50;;
28926;SDS011;16038;47.692;9.400;2022-08-04T18:48:51;6.53;;;1.70;;
28926;SDS011;16038;47.692;9.400;2022-08-04T18:51:16;4.95;;;1.50;;
28926;SDS011;16038;47.692;9.400;2022-08-04T18:53:45;4.53;;;1.97;;
28926;SDS011;16038;47.692;9.400;2022-08-04T18:56:12;2.80;;;1.70;;
28926;SDS011;16038;47.692;9.400;2022-08-04T18:58:40;3.25;;;1.40;;
28926;SDS011;16038;47.692;9.400;2022-08-04T19:01:06;3.28;;;1.58;;
28926;SDS011;16038;47.692;9.400;2022-08-04T19:03:33;3.08;;;1.63;;
28926;SDS011;16038;47.692;9.400;2022-08-04T19:05:59;3.40;;;1.48;;
28926;SDS011;16038;47.692;9.400;2022-08-04T19:08:26;6.18;;;1.80;;
28926;SDS011;16038;47.692;9.400;2022-08-04T19:10:52;4.70;;;1.73;;
28926;SDS011;16038;47.692;9.400;2022-08-04T19:13:17;4.13;;;1.88;;
28926;SDS011;16038;47.692;9.400;2022-08-04T19:15:42;4.80;;;1.60;;
28926;SDS011;16038;47.692;9.400;2022-08-04T19:18:08;7.05;;;2.03;;
28926;SDS011;16038;47.692;9.400;2022-08-04T19:20:33;5.70;;;3.08;;
28926;SDS011;16038;47.692;9.400;2022-08-04T19:22:59;5.63;;;3.75;;
28926;SDS011;16038;47.692;9.400;2022-08-04T19:25:24;8.65;;;3.63;;
28926;SDS011;16038;47.692;9.400;2022-08-04T19:27:49;6.53;;;2.00;;
28926;SDS011;16038;47.692;9.400;2022-08-04T19:30:15;6.00;;;2.00;;
28926;SDS011;16038;47.692;9.400;2022-08-04T19:32:40;5.15;;;1.88;;
28926;SDS011;16038;47.692;9.400;2022-08-04T19:35:06;7.22;;;2.22;;
28926;SDS011;16038;47.692;9.400;2022-08-04T19:37:31;3.70;;;2.22;;
28926;SDS011;16038;47.692;9.400;2022-08-04T19:39:57;4.05;;;2.40;;